Bengall, Arkansas
Current Conditions -  °F | °C
As of 10:56 AM on Thursday 23 Oct 2014 (Local Time) from KM19 Reporting Station
Clear Clear  
Wind Chill: 53°   Ceiling: Unl
Heat Index: 53°   Visibility: 10mi
Dew Point: 48°   Wind: 3mph
Humidity: 83%   Direction: 310°NW
Pressure: 30.25"   Gusts: NA
Location:  35.5678°N, 91.2073°W
Report Text: KM19 231556Z AUTO 31003KT 10SM CLR 12/09 A3025 RMK AO2 T01160088 SLP243
Loading
Personal Weather Stations






























Interactive Weather Map
Tropical Storm Tracking
New forecast layout! Learn more

10-Day Weather Forecast

Advertisements
Track Severe Weather on mobile